Time;durP1;ratioP1;P1;durP2;ratioP2;P2;SDS_P1;SDS_P2;PMS_P1;PMS_P2;Temp;Humidity;BMP_temperature;BMP_pressure;BME280_temperature;BME280_humidity;BME280_pressure;Samples;Min_cycle;Max_cycle;Signal;HPM_P1;HPM_P2
2021/12/06 00:00:04;;;;;;;12.57;7.10;;;;;;;;;;4992962;28;20050;-68
2021/12/06 00:02:31;;;;;;;18.52;8.88;;;;;;;;;;4992928;28;20189;-67
2021/12/06 00:04:58;;;;;;;10.45;7.10;;;;;;;;;;4973747;28;20054;-68
2021/12/06 00:07:25;;;;;;;8.43;6.00;;;;;;;;;;4977266;28;20054;-68
2021/12/06 00:09:51;;;;;;;8.13;6.45;;;;;;;;;;4971738;28;20054;-67
2021/12/06 00:12:18;;;;;;;8.70;6.65;;;;;;;;;;4973491;28;20050;-68
2021/12/06 00:14:45;;;;;;;7.95;6.95;;;;;;;;;;4973058;28;20379;-68
2021/12/06 00:17:13;;;;;;;12.68;7.63;;;;;;;;;;4984788;28;20054;-67
2021/12/06 00:19:40;;;;;;;7.38;6.30;;;;;;;;;;4973261;28;20051;-68
2021/12/06 00:22:10;;;;;;;14.18;8.63;;;;;;;;;;4973385;28;20078;-68
2021/12/06 00:24:37;;;;;;;10.93;8.63;;;;;;;;;;4973108;28;20111;-68
2021/12/06 00:27:04;;;;;;;12.45;8.27;;;;;;;;;;4973285;28;20101;-68
2021/12/06 00:29:30;;;;;;;13.85;9.65;;;;;;;;;;4973063;28;20054;-68
2021/12/06 00:31:57;;;;;;;11.05;8.50;;;;;;;;;;4973680;28;20054;-68
2021/12/06 00:34:29;;;;;;;10.95;8.52;;;;;;;;;;4976657;28;20540;-67
2021/12/06 00:37:15;;;;;;;10.50;7.93;;;;;;;;;;4992168;28;20046;-67
2021/12/06 00:39:45;;;;;;;10.07;7.60;;;;;;;;;;4989600;28;20058;-67
2021/12/06 00:42:12;;;;;;;9.65;8.10;;;;;;;;;;4973235;28;20424;-68
2021/12/06 00:44:39;;;;;;;10.07;8.18;;;;;;;;;;4973044;28;20047;-67
2021/12/06 00:47:06;;;;;;;9.02;7.05;;;;;;;;;;4977946;28;20117;-68
2021/12/06 00:49:32;;;;;;;10.00;7.93;;;;;;;;;;4972985;28;20086;-67
2021/12/06 00:51:59;;;;;;;10.35;7.47;;;;;;;;;;4985118;28;20108;-68
2021/12/06 00:54:26;;;;;;;7.63;6.47;;;;;;;;;;4972731;28;20050;-68
2021/12/06 00:56:52;;;;;;;8.75;7.20;;;;;;;;;;4985984;28;20042;-66
2021/12/06 00:59:19;;;;;;;8.02;6.60;;;;;;;;;;4981188;28;20082;-67
2021/12/06 01:01:46;;;;;;;8.85;7.28;;;;;;;;;;4985340;28;20449;-67
2021/12/06 01:04:15;;;;;;;11.43;7.50;;;;;;;;;;4988473;28;20054;-66
2021/12/06 01:06:41;;;;;;;9.30;6.90;;;;;;;;;;4972588;28;20043;-67
2021/12/06 01:09:08;;;;;;;10.10;6.70;;;;;;;;;;4979112;28;20047;-68
2021/12/06 01:11:35;;;;;;;11.35;7.13;;;;;;;;;;4984253;28;20050;-67
2021/12/06 01:14:02;;;;;;;9.55;7.40;;;;;;;;;;4984313;28;20050;-67
2021/12/06 01:16:29;;;;;;;12.60;8.27;;;;;;;;;;4974203;28;20097;-68
2021/12/06 01:18:56;;;;;;;15.13;9.30;;;;;;;;;;4972768;28;20121;-68
2021/12/06 01:21:31;;;;;;;13.20;9.18;;;;;;;;;;4976746;28;20395;-68
2021/12/06 01:24:00;;;;;;;9.93;7.72;;;;;;;;;;4976299;28;20051;-68
2021/12/06 01:39:38;;;;;;;8.63;7.28;;;;;;;;;;4995514;28;20046;-68
2021/12/06 01:42:06;;;;;;;8.18;7.30;;;;;;;;;;4995574;28;20109;-68
2021/12/06 01:44:35;;;;;;;8.07;6.78;;;;;;;;;;4995554;28;20054;-68
2021/12/06 01:47:10;;;;;;;7.95;6.75;;;;;;;;;;4994998;28;20263;-68
2021/12/06 01:49:48;;;;;;;10.25;7.00;;;;;;;;;;4995277;28;20046;-68
2021/12/06 01:52:19;;;;;;;9.00;7.22;;;;;;;;;;4994557;28;20054;-68
2021/12/06 01:54:46;;;;;;;9.23;7.43;;;;;;;;;;4995106;28;20113;-68
2021/12/06 01:57:13;;;;;;;10.02;7.35;;;;;;;;;;4995486;28;20042;-67
2021/12/06 01:59:39;;;;;;;8.13;6.97;;;;;;;;;;4994068;28;20050;-67
2021/12/06 02:02:06;;;;;;;9.75;7.50;;;;;;;;;;4985856;28;20174;-68
2021/12/06 02:04:35;;;;;;;9.15;7.55;;;;;;;;;;4975599;28;20499;-68
2021/12/06 02:07:02;;;;;;;9.73;6.95;;;;;;;;;;4975487;28;20560;-68
2021/12/06 02:09:29;;;;;;;9.98;7.55;;;;;;;;;;4975669;28;20125;-68
2021/12/06 02:11:59;;;;;;;8.95;7.85;;;;;;;;;;4975784;28;20058;-68
2021/12/06 02:14:34;;;;;;;11.30;8.43;;;;;;;;;;4975933;28;20473;-68
2021/12/06 02:17:10;;;;;;;11.57;7.82;;;;;;;;;;4975351;28;20043;-68
2021/12/06 02:19:41;;;;;;;9.88;7.68;;;;;;;;;;4975541;28;20058;-68
2021/12/06 02:22:10;;;;;;;8.43;6.85;;;;;;;;;;4975427;28;20469;-68
2021/12/06 02:24:38;;;;;;;9.40;6.72;;;;;;;;;;4975261;28;20054;-68
2021/12/06 02:27:07;;;;;;;9.13;6.65;;;;;;;;;;4975388;28;20105;-68
2021/12/06 02:29:33;;;;;;;9.30;7.80;;;;;;;;;;4975263;28;20081;-66
2021/12/06 02:32:05;;;;;;;10.38;8.05;;;;;;;;;;4974485;28;20050;-68
2021/12/06 02:34:32;;;;;;;9.10;7.40;;;;;;;;;;4975090;28;20105;-66
2021/12/06 02:36:59;;;;;;;9.85;7.53;;;;;;;;;;4974910;28;20043;-68
2021/12/06 02:39:28;;;;;;;10.35;8.13;;;;;;;;;;4975100;28;20553;-68
2021/12/06 02:41:56;;;;;;;13.00;9.40;;;;;;;;;;4978599;28;20585;-68
2021/12/06 02:44:23;;;;;;;11.98;8.70;;;;;;;;;;4994375;28;20085;-68
2021/12/06 02:46:50;;;;;;;11.52;8.88;;;;;;;;;;4994253;28;20058;-67
2021/12/06 02:49:17;;;;;;;12.43;8.98;;;;;;;;;;4994529;28;20046;-67
2021/12/06 02:51:44;;;;;;;17.83;11.30;;;;;;;;;;4994191;28;20054;-68
2021/12/06 02:54:11;;;;;;;12.52;9.40;;;;;;;;;;4992920;28;20054;-67
2021/12/06 02:56:53;;;;;;;17.80;11.68;;;;;;;;;;4994159;28;20105;-67
2021/12/06 02:59:21;;;;;;;15.57;11.40;;;;;;;;;;4994287;28;20050;-67
2021/12/06 03:01:55;;;;;;;13.75;10.40;;;;;;;;;;4991203;28;20055;-66
2021/12/06 03:04:22;;;;;;;12.70;9.48;;;;;;;;;;4974703;28;20106;-68
2021/12/06 03:06:54;;;;;;;11.70;9.80;;;;;;;;;;4974499;28;20469;-68
2021/12/06 03:09:26;;;;;;;13.45;9.68;;;;;;;;;;4974660;28;20422;-68
2021/12/06 03:11:52;;;;;;;15.30;10.30;;;;;;;;;;4976927;28;20054;-68
2021/12/06 03:14:32;;;;;;;14.05;10.82;;;;;;;;;;4993643;28;20081;-68
2021/12/06 03:17:00;;;;;;;12.38;9.63;;;;;;;;;;4993611;28;20054;-67
2021/12/06 03:19:27;;;;;;;13.93;10.63;;;;;;;;;;4993679;28;20054;-66
2021/12/06 03:21:53;;;;;;;11.00;9.48;;;;;;;;;;4993589;28;20054;-67
2021/12/06 03:24:20;;;;;;;12.68;10.00;;;;;;;;;;4994058;28;20050;-68
2021/12/06 03:26:47;;;;;;;11.65;9.30;;;;;;;;;;4993531;28;20461;-68
2021/12/06 03:29:14;;;;;;;15.77;10.50;;;;;;;;;;4993583;28;20100;-68
2021/12/06 03:31:41;;;;;;;12.75;10.15;;;;;;;;;;4992320;28;20060;-67
2021/12/06 03:34:08;;;;;;;12.70;10.80;;;;;;;;;;4973886;28;20058;-68
2021/12/06 03:36:36;;;;;;;12.40;10.18;;;;;;;;;;4974021;28;20105;-67
2021/12/06 03:39:06;;;;;;;12.88;10.18;;;;;;;;;;4973800;28;20103;-67
2021/12/06 03:41:33;;;;;;;13.55;10.25;;;;;;;;;;4974188;28;20346;-68
2021/12/06 03:44:00;;;;;;;13.25;10.23;;;;;;;;;;4972694;28;20469;-67
2021/12/06 03:46:28;;;;;;;12.10;10.52;;;;;;;;;;4973735;28;20047;-68
2021/12/06 03:48:55;;;;;;;14.85;10.95;;;;;;;;;;5042520;23;20037;-67
2021/12/06 03:51:22;;;;;;;14.40;11.07;;;;;;;;;;5032597;28;20049;-67
2021/12/06 03:53:48;;;;;;;13.60;11.18;;;;;;;;;;5032236;28;20392;-67
2021/12/06 03:56:15;;;;;;;15.32;11.65;;;;;;;;;;5032607;28;20127;-66
2021/12/06 03:58:44;;;;;;;14.50;10.73;;;;;;;;;;5032204;28;20119;-67
2021/12/06 04:01:12;;;;;;;13.70;10.68;;;;;;;;;;5032521;28;20123;-66
2021/12/06 04:03:42;;;;;;;17.88;11.32;;;;;;;;;;5015710;28;20053;-66
2021/12/06 04:06:08;;;;;;;15.23;12.45;;;;;;;;;;5012800;28;20049;-66
2021/12/06 04:08:35;;;;;;;13.52;11.60;;;;;;;;;;5012514;28;20050;-67
2021/12/06 04:11:02;;;;;;;14.05;11.43;;;;;;;;;;5012440;28;20058;-66
2021/12/06 04:13:28;;;;;;;13.20;10.45;;;;;;;;;;5026732;28;20459;-67
2021/12/06 04:15:57;;;;;;;14.57;10.90;;;;;;;;;;5030907;28;20049;-66
2021/12/06 04:18:24;;;;;;;14.32;9.90;;;;;;;;;;5032007;28;20049;-66
2021/12/06 04:20:51;;;;;;;15.13;11.68;;;;;;;;;;5032073;28;20053;-66
2021/12/06 04:23:17;;;;;;;18.50;11.65;;;;;;;;;;5031212;28;20405;-67
2021/12/06 04:25:44;;;;;;;17.13;12.73;;;;;;;;;;5031967;28;20049;-67
2021/12/06 04:28:14;;;;;;;16.63;11.13;;;;;;;;;;5031728;28;20103;-66
2021/12/06 04:30:42;;;;;;;15.60;12.35;;;;;;;;;;5031888;28;20060;-66
2021/12/06 04:33:08;;;;;;;19.00;13.32;;;;;;;;;;5019863;28;20464;-67
2021/12/06 04:35:36;;;;;;;17.65;13.85;;;;;;;;;;5012233;28;20049;-66
2021/12/06 04:38:04;;;;;;;20.92;13.63;;;;;;;;;;5011823;28;20516;-66
2021/12/06 04:40:30;;;;;;;18.27;14.52;;;;;;;;;;5012154;28;20053;-67
2021/12/06 04:42:57;;;;;;;15.90;12.80;;;;;;;;;;5021177;28;20049;-67
2021/12/06 04:45:24;;;;;;;19.52;14.05;;;;;;;;;;5031883;28;20049;-67
2021/12/06 04:47:51;;;;;;;17.58;14.60;;;;;;;;;;5021703;28;20052;-67
2021/12/06 04:50:20;;;;;;;18.90;14.60;;;;;;;;;;5011690;28;20042;-67
2021/12/06 04:52:47;;;;;;;23.25;16.02;;;;;;;;;;5011829;28;20460;-66
2021/12/06 04:55:31;;;;;;;18.55;14.40;;;;;;;;;;5016240;28;20054;-66
2021/12/06 04:57:58;;;;;;;20.73;14.60;;;;;;;;;;5017983;28;20042;-67
2021/12/06 05:00:50;;;;;;;20.15;15.50;;;;;;;;;;5018492;28;20552;-66
2021/12/06 05:03:17;;;;;;;19.27;14.65;;;;;;;;;;5029764;28;20080;-66
2021/12/06 05:06:06;;;;;;;16.35;13.65;;;;;;;;;;5036461;28;20057;-66
2021/12/06 05:08:37;;;;;;;15.68;12.82;;;;;;;;;;5004539;28;20050;-67
2021/12/06 05:11:04;;;;;;;22.17;14.13;;;;;;;;;;5018502;28;20107;-64
2021/12/06 05:13:33;;;;;;;16.08;13.18;;;;;;;;;;5018236;28;20050;-64
2021/12/06 05:16:01;;;;;;;16.65;13.30;;;;;;;;;;5018315;28;20054;-64
2021/12/06 05:18:28;;;;;;;19.30;14.00;;;;;;;;;;5018160;28;20050;-64
2021/12/06 05:20:54;;;;;;;18.08;13.63;;;;;;;;;;5016980;28;20049;-64
2021/12/06 05:23:21;;;;;;;20.88;14.93;;;;;;;;;;5027208;28;20053;-64
2021/12/06 05:25:49;;;;;;;18.48;13.70;;;;;;;;;;5038003;28;20099;-64
2021/12/06 05:28:17;;;;;;;24.50;16.45;;;;;;;;;;5038029;28;20050;-64
2021/12/06 05:30:44;;;;;;;21.65;15.85;;;;;;;;;;5038013;28;20053;-65
2021/12/06 05:33:17;;;;;;;21.63;16.35;;;;;;;;;;5036721;28;20053;-65
2021/12/06 05:35:46;;;;;;;20.90;14.90;;;;;;;;;;5038017;28;20045;-65
2021/12/06 05:38:13;;;;;;;23.70;15.88;;;;;;;;;;5037749;28;20073;-65
2021/12/06 05:40:40;;;;;;;21.75;15.40;;;;;;;;;;5037939;28;20049;-65
2021/12/06 05:43:07;;;;;;;19.80;15.27;;;;;;;;;;5037600;28;20511;-65
2021/12/06 05:45:36;;;;;;;22.65;15.60;;;;;;;;;;5036739;28;20049;-65
2021/12/06 05:48:04;;;;;;;19.60;15.23;;;;;;;;;;5037431;28;20049;-64
2021/12/06 05:50:31;;;;;;;21.63;15.80;;;;;;;;;;5037986;28;20049;-65
2021/12/06 05:52:57;;;;;;;18.20;14.50;;;;;;;;;;5037575;28;20099;-65
2021/12/06 05:55:27;;;;;;;17.73;14.40;;;;;;;;;;5037824;28;20053;-65
2021/12/06 05:58:00;;;;;;;20.73;14.10;;;;;;;;;;5037453;28;20053;-65
2021/12/06 06:00:30;;;;;;;20.42;15.02;;;;;;;;;;5032348;28;20057;-65
2021/12/06 06:02:57;;;;;;;24.42;15.10;;;;;;;;;;5017589;28;20100;-64
2021/12/06 06:05:24;;;;;;;27.05;17.30;;;;;;;;;;5016978;28;20058;-64
2021/12/06 06:07:51;;;;;;;25.20;16.08;;;;;;;;;;5014153;28;20380;-65
2021/12/06 06:10:18;;;;;;;27.80;17.60;;;;;;;;;;5014854;28;20467;-65
2021/12/06 06:12:44;;;;;;;27.55;17.88;;;;;;;;;;5014487;28;20046;-65
2021/12/06 06:15:11;;;;;;;25.50;16.60;;;;;;;;;;5014536;28;20045;-64
2021/12/06 06:17:42;;;;;;;26.30;17.55;;;;;;;;;;5014472;28;20052;-65
2021/12/06 06:20:14;;;;;;;27.58;17.45;;;;;;;;;;5018748;28;20060;-65
2021/12/06 06:22:41;;;;;;;26.60;18.00;;;;;;;;;;5034054;28;20107;-65
2021/12/06 06:25:08;;;;;;;25.05;17.83;;;;;;;;;;5034175;28;20049;-64
2021/12/06 06:27:35;;;;;;;23.35;16.25;;;;;;;;;;5032983;28;20056;-65
2021/12/06 06:30:03;;;;;;;23.77;16.80;;;;;;;;;;5034044;28;20057;-65
2021/12/06 06:32:29;;;;;;;22.90;16.58;;;;;;;;;;5033857;28;20057;-65
2021/12/06 06:34:56;;;;;;;21.98;17.33;;;;;;;;;;5033934;28;20474;-65
2021/12/06 06:37:23;;;;;;;23.58;16.67;;;;;;;;;;5026030;28;20100;-65
2021/12/06 06:39:49;;;;;;;21.80;15.60;;;;;;;;;;5013904;28;20497;-65
2021/12/06 06:42:16;;;;;;;21.83;15.88;;;;;;;;;;5014049;28;20050;-64
2021/12/06 06:44:42;;;;;;;23.35;14.93;;;;;;;;;;5014095;28;20449;-64
2021/12/06 06:47:09;;;;;;;21.65;15.82;;;;;;;;;;5013767;28;20505;-65
2021/12/06 06:49:36;;;;;;;22.08;16.17;;;;;;;;;;5014078;28;20123;-65
2021/12/06 06:52:03;;;;;;;24.80;15.93;;;;;;;;;;5013875;28;20050;-65
2021/12/06 06:54:29;;;;;;;23.10;16.38;;;;;;;;;;5013752;28;20050;-65
2021/12/06 06:56:56;;;;;;;27.05;16.95;;;;;;;;;;5013659;28;20050;-65
2021/12/06 06:59:22;;;;;;;24.98;15.88;;;;;;;;;;5013669;28;20111;-64
2021/12/06 07:01:49;;;;;;;25.42;16.90;;;;;;;;;;5013638;28;20053;-65
2021/12/06 07:04:16;;;;;;;22.70;15.60;;;;;;;;;;5013641;28;20054;-65
2021/12/06 07:06:44;;;;;;;23.00;16.20;;;;;;;;;;5015183;28;20061;-64
2021/12/06 07:09:10;;;;;;;25.27;16.75;;;;;;;;;;5013466;28;20042;-64
2021/12/06 07:11:38;;;;;;;24.80;16.70;;;;;;;;;;5013508;28;20072;-65
2021/12/06 07:14:04;;;;;;;23.73;16.85;;;;;;;;;;5012067;28;20049;-65
2021/12/06 07:16:31;;;;;;;23.58;16.30;;;;;;;;;;5013395;28;20464;-64
2021/12/06 07:18:58;;;;;;;25.88;17.35;;;;;;;;;;5011610;28;20556;-64
2021/12/06 07:21:44;;;;;;;27.63;17.77;;;;;;;;;;5011203;28;20592;-65
2021/12/06 07:24:11;;;;;;;23.63;17.67;;;;;;;;;;4995644;28;20107;-65
2021/12/06 07:26:38;;;;;;;28.17;17.83;;;;;;;;;;5005923;28;21119;-65
2021/12/06 07:29:05;;;;;;;25.67;17.42;;;;;;;;;;4997274;28;20046;-65
2021/12/06 07:31:31;;;;;;;29.05;19.38;;;;;;;;;;4996961;28;20046;-65
2021/12/06 07:33:58;;;;;;;26.75;17.40;;;;;;;;;;4996973;28;20050;-65
2021/12/06 07:36:28;;;;;;;22.98;16.25;;;;;;;;;;5002820;28;20496;-65
2021/12/06 07:38:55;;;;;;;27.85;17.73;;;;;;;;;;5001735;28;20045;-65
2021/12/06 07:41:22;;;;;;;24.38;16.55;;;;;;;;;;4998862;28;20558;-64
2021/12/06 07:43:49;;;;;;;23.05;15.50;;;;;;;;;;5003606;28;20049;-64
2021/12/06 07:46:16;;;;;;;22.60;17.42;;;;;;;;;;4998656;28;20080;-65
2021/12/06 07:48:43;;;;;;;23.88;16.58;;;;;;;;;;5000143;28;20140;-65
2021/12/06 07:51:09;;;;;;;27.08;18.08;;;;;;;;;;4998009;28;20057;-64
2021/12/06 07:53:42;;;;;;;25.02;17.10;;;;;;;;;;4999663;28;20050;-65
2021/12/06 07:56:09;;;;;;;21.23;16.42;;;;;;;;;;4999542;28;20108;-65
2021/12/06 07:58:36;;;;;;;25.02;17.05;;;;;;;;;;4996923;28;20124;-65
2021/12/06 08:01:02;;;;;;;23.50;16.08;;;;;;;;;;4997500;28;20046;-65
2021/12/06 08:03:31;;;;;;;20.10;15.27;;;;;;;;;;4997455;28;20081;-65
2021/12/06 08:05:59;;;;;;;22.33;16.83;;;;;;;;;;4994398;28;20046;-66
2021/12/06 08:08:28;;;;;;;23.90;16.55;;;;;;;;;;4997937;28;20038;-66
2021/12/06 08:10:57;;;;;;;23.25;16.35;;;;;;;;;;4999295;28;20054;-66
2021/12/06 08:13:26;;;;;;;26.42;16.17;;;;;;;;;;4997506;28;20057;-66
2021/12/06 08:15:56;;;;;;;22.25;17.35;;;;;;;;;;4995456;28;20062;-66
2021/12/06 08:18:22;;;;;;;23.63;16.63;;;;;;;;;;5000377;28;20140;-65
2021/12/06 08:20:49;;;;;;;20.85;15.30;;;;;;;;;;5000105;28;20050;-65
2021/12/06 08:23:16;;;;;;;23.60;15.85;;;;;;;;;;4997524;28;20050;-65
2021/12/06 08:25:46;;;;;;;24.35;15.52;;;;;;;;;;4997061;28;20046;-65
2021/12/06 08:28:14;;;;;;;22.20;16.17;;;;;;;;;;4995272;28;20108;-65
2021/12/06 08:30:47;;;;;;;22.85;15.23;;;;;;;;;;4996021;28;20057;-65
2021/12/06 08:33:14;;;;;;;25.27;16.83;;;;;;;;;;4997881;28;20539;-65
2021/12/06 08:35:45;;;;;;;23.17;15.88;;;;;;;;;;4997254;28;20456;-65
2021/12/06 08:38:14;;;;;;;23.98;16.15;;;;;;;;;;4996028;28;20907;-65
2021/12/06 08:40:42;;;;;;;23.30;16.75;;;;;;;;;;4999899;28;20053;-65
2021/12/06 08:43:16;;;;;;;19.83;14.02;;;;;;;;;;4996945;28;20053;-66
2021/12/06 08:45:45;;;;;;;23.17;15.45;;;;;;;;;;4995425;28;20085;-67
2021/12/06 08:48:12;;;;;;;22.30;15.60;;;;;;;;;;4997141;28;20058;-65
2021/12/06 08:50:39;;;;;;;19.50;13.75;;;;;;;;;;4999011;28;20072;-66
2021/12/06 08:53:05;;;;;;;23.10;15.48;;;;;;;;;;4997261;28;20051;-68
2021/12/06 08:55:32;;;;;;;23.80;15.07;;;;;;;;;;4995069;28;20046;-65
2021/12/06 08:57:59;;;;;;;26.67;16.38;;;;;;;;;;4999598;28;20583;-66
2021/12/06 09:00:28;;;;;;;24.23;15.23;;;;;;;;;;4997475;28;20046;-67
2021/12/06 09:02:55;;;;;;;22.80;15.10;;;;;;;;;;4996581;28;20057;-67
2021/12/06 09:05:24;;;;;;;24.52;16.92;;;;;;;;;;4998561;28;20096;-67
2021/12/06 09:07:52;;;;;;;23.60;14.40;;;;;;;;;;4996548;28;20056;-66
2021/12/06 09:10:19;;;;;;;22.52;13.77;;;;;;;;;;4999548;28;20047;-66
2021/12/06 09:12:45;;;;;;;27.17;16.75;;;;;;;;;;4996812;28;20509;-67
2021/12/06 09:15:15;;;;;;;23.13;15.10;;;;;;;;;;4998937;28;20050;-67
2021/12/06 09:17:47;;;;;;;28.08;15.32;;;;;;;;;;4996911;28;20105;-67
2021/12/06 09:20:17;;;;;;;25.90;14.63;;;;;;;;;;5000210;28;20485;-66
2021/12/06 09:22:45;;;;;;;24.60;15.00;;;;;;;;;;4998570;28;20058;-67
2021/12/06 09:25:12;;;;;;;28.08;15.60;;;;;;;;;;4997488;28;20112;-68
2021/12/06 09:27:39;;;;;;;23.00;14.13;;;;;;;;;;4998508;28;20116;-68
2021/12/06 09:30:07;;;;;;;24.55;15.55;;;;;;;;;;4996683;28;20054;-66
2021/12/06 09:32:34;;;;;;;26.13;15.52;;;;;;;;;;5003683;28;20113;-66
2021/12/06 09:35:03;;;;;;;30.67;17.13;;;;;;;;;;4996446;28;20057;-66
2021/12/06 09:37:30;;;;;;;28.33;15.60;;;;;;;;;;4999437;28;20559;-67
2021/12/06 09:39:57;;;;;;;26.77;15.90;;;;;;;;;;4997822;28;20097;-66
2021/12/06 09:42:25;;;;;;;29.45;16.50;;;;;;;;;;5004091;28;20050;-68
2021/12/06 09:44:53;;;;;;;29.42;15.95;;;;;;;;;;5000453;28;20101;-66
2021/12/06 09:47:20;;;;;;;29.55;16.08;;;;;;;;;;5001755;28;20054;-66
2021/12/06 09:49:47;;;;;;;27.60;16.77;;;;;;;;;;5058323;23;20103;-65
2021/12/06 09:52:15;;;;;;;31.42;17.10;;;;;;;;;;5041755;28;20057;-66
2021/12/06 09:54:42;;;;;;;26.20;14.63;;;;;;;;;;5044799;28;20045;-67
2021/12/06 09:57:09;;;;;;;25.60;15.10;;;;;;;;;;5045264;28;20044;-64
2021/12/06 09:59:37;;;;;;;25.48;14.70;;;;;;;;;;5027548;28;20516;-65
2021/12/06 10:02:07;;;;;;;24.45;14.15;;;;;;;;;;5014037;28;20049;-69
2021/12/06 10:04:38;;;;;;;22.45;14.52;;;;;;;;;;5022340;28;20079;-69
2021/12/06 10:07:09;;;;;;;28.60;15.65;;;;;;;;;;5024066;28;20045;-64
2021/12/06 10:09:40;;;;;;;24.55;14.65;;;;;;;;;;5024210;28;20057;-64
2021/12/06 10:12:08;;;;;;;26.27;14.77;;;;;;;;;;5021875;28;20504;-68
2021/12/06 10:14:36;;;;;;;27.30;15.05;;;;;;;;;;5006167;28;20504;-69
2021/12/06 10:17:08;;;;;;;28.65;15.27;;;;;;;;;;5020635;28;20145;-67
2021/12/06 10:19:35;;;;;;;25.08;14.73;;;;;;;;;;5020495;28;20050;-68
2021/12/06 10:22:02;;;;;;;23.95;14.20;;;;;;;;;;5022441;28;20069;-70
2021/12/06 10:24:30;;;;;;;21.80;14.13;;;;;;;;;;5024520;28;20065;-68
2021/12/06 10:27:04;;;;;;;22.80;14.93;;;;;;;;;;5021016;28;20046;-66
2021/12/06 10:29:37;;;;;;;22.75;14.27;;;;;;;;;;5023067;28;20048;-65
2021/12/06 10:32:11;;;;;;;22.30;14.75;;;;;;;;;;5022673;28;20056;-67
2021/12/06 10:34:46;;;;;;;22.35;13.57;;;;;;;;;;5003042;28;20444;-70
2021/12/06 10:37:46;;;;;;;24.35;14.48;;;;;;;;;;5003301;28;20050;-67
2021/12/06 10:40:28;;;;;;;23.60;13.80;;;;;;;;;;5032227;28;20077;-68
2021/12/06 10:42:56;;;;;;;19.73;12.27;;;;;;;;;;5021672;28;20127;-66
2021/12/06 10:45:25;;;;;;;18.08;11.48;;;;;;;;;;5023464;28;20147;-64
2021/12/06 10:48:15;;;;;;;19.63;13.43;;;;;;;;;;5022529;28;20460;-65
2021/12/06 10:50:52;;;;;;;17.50;11.38;;;;;;;;;;5020717;28;20049;-66
2021/12/06 10:53:37;;;;;;;18.50;12.45;;;;;;;;;;5025284;28;20111;-65
2021/12/06 10:56:15;;;;;;;20.27;11.90;;;;;;;;;;5023788;28;20623;-67
2021/12/06 10:58:42;;;;;;;19.35;12.32;;;;;;;;;;5022516;28;20858;-67
2021/12/06 11:01:12;;;;;;;18.88;11.73;;;;;;;;;;5019846;28;20053;-66
2021/12/06 11:03:47;;;;;;;14.90;10.32;;;;;;;;;;5022564;28;20420;-66
2021/12/06 11:06:41;;;;;;;17.25;10.73;;;;;;;;;;5022652;28;20045;-65
2021/12/06 11:09:33;;;;;;;16.23;9.80;;;;;;;;;;5021513;28;20109;-65
2021/12/06 11:12:01;;;;;;;18.02;11.00;;;;;;;;;;5020628;28;20061;-66
2021/12/06 11:14:30;;;;;;;16.25;9.90;;;;;;;;;;5023205;28;20108;-66
2021/12/06 11:17:07;;;;;;;14.95;10.00;;;;;;;;;;5023028;28;20045;-66
2021/12/06 11:19:34;;;;;;;16.58;10.55;;;;;;;;;;5035059;28;20053;-66
2021/12/06 11:22:12;;;;;;;13.25;9.63;;;;;;;;;;5017971;28;20053;-65
2021/12/06 11:24:43;;;;;;;18.17;10.15;;;;;;;;;;5019266;28;20100;-65
2021/12/06 11:27:17;;;;;;;13.88;8.25;;;;;;;;;;5006208;28;20107;-66
2021/12/06 11:29:46;;;;;;;14.13;9.10;;;;;;;;;;5017666;28;20046;-64
2021/12/06 11:32:14;;;;;;;14.82;8.88;;;;;;;;;;5022627;28;20049;-66
2021/12/06 11:34:47;;;;;;;12.50;8.07;;;;;;;;;;5018815;28;20108;-66
2021/12/06 11:37:19;;;;;;;16.33;9.77;;;;;;;;;;5019540;28;20509;-65
2021/12/06 11:40:08;;;;;;;13.15;8.98;;;;;;;;;;5016361;28;20484;-66
2021/12/06 11:43:00;;;;;;;15.88;9.10;;;;;;;;;;5017821;28;20054;-66
2021/12/06 11:45:45;;;;;;;13.30;9.02;;;;;;;;;;5026290;28;20117;-66
2021/12/06 11:48:19;;;;;;;15.98;9.57;;;;;;;;;;5020001;28;20116;-65
2021/12/06 11:51:08;;;;;;;15.27;8.85;;;;;;;;;;5019463;28;20141;-65
2021/12/06 11:53:37;;;;;;;16.20;9.15;;;;;;;;;;5019479;28;20140;-65
2021/12/06 11:56:07;;;;;;;14.32;9.45;;;;;;;;;;5020872;28;20049;-65
2021/12/06 11:58:37;;;;;;;17.98;9.85;;;;;;;;;;5020450;28;20051;-65
2021/12/06 12:01:16;;;;;;;12.63;8.23;;;;;;;;;;5016999;28;20107;-68
2021/12/06 12:03:49;;;;;;;14.32;9.02;;;;;;;;;;4989315;28;20519;-69
2021/12/06 12:06:33;;;;;;;;;;;;;;;;;;5020671;28;20136;-67
2021/12/06 12:09:13;;;;;;;16.00;9.60;;;;;;;;;;4999953;28;19932;-67
2021/12/06 12:12:06;;;;;;;15.43;10.20;;;;;;;;;;5016238;28;20053;-67
2021/12/06 12:14:49;;;;;;;14.23;9.50;;;;;;;;;;5012499;28;20397;-67
2021/12/06 12:17:17;;;;;;;;;;;;;;;;;;5021129;28;20053;-68
2021/12/06 12:19:44;;;;;;;15.10;10.23;;;;;;;;;;5022538;28;20430;-68
2021/12/06 12:22:12;;;;;;;13.23;9.43;;;;;;;;;;5021451;28;20111;-68
2021/12/06 12:24:42;;;;;;;17.88;9.80;;;;;;;;;;5022086;28;20104;-69
2021/12/06 12:29:59;;;;;;;16.83;10.02;;;;;;;;;;5022370;28;20045;-68
2021/12/06 12:32:27;;;;;;;15.32;9.10;;;;;;;;;;5005724;28;20046;-68
2021/12/06 12:34:57;;;;;;;15.30;8.63;;;;;;;;;;5015794;28;20049;-68
2021/12/06 12:37:24;;;;;;;13.88;8.70;;;;;;;;;;5005110;28;20107;-68
2021/12/06 12:39:58;;;;;;;13.90;9.05;;;;;;;;;;5017771;28;20459;-69
2021/12/06 12:42:25;;;;;;;13.65;8.68;;;;;;;;;;5015341;28;20060;-68
2021/12/06 12:44:54;;;;;;;13.88;9.63;;;;;;;;;;5000909;28;20049;-66
2021/12/06 12:47:23;;;;;;;16.77;9.63;;;;;;;;;;5005999;28;20116;-66
2021/12/06 12:49:55;;;;;;;15.23;9.88;;;;;;;;;;5003416;28;20049;-67
2021/12/06 12:52:44;;;;;;;19.50;11.00;;;;;;;;;;5012861;28;20508;-67
2021/12/06 12:55:28;;;;;;;15.02;10.57;;;;;;;;;;5016762;28;20296;-67
2021/12/06 12:58:13;;;;;;;18.63;11.35;;;;;;;;;;5019998;28;20045;-66
2021/12/06 13:00:46;;;;;;;21.73;11.73;;;;;;;;;;5018754;28;20086;-68
2021/12/06 13:03:35;;;;;;;17.95;11.50;;;;;;;;;;5001728;28;20124;-67
2021/12/06 13:06:14;;;;;;;17.20;11.43;;;;;;;;;;5017975;28;20057;-67
2021/12/06 13:08:41;;;;;;;22.98;11.68;;;;;;;;;;5021867;28;20076;-68
2021/12/06 13:11:08;;;;;;;19.77;12.32;;;;;;;;;;5017494;28;20099;-66
2021/12/06 13:13:44;;;;;;;21.52;12.25;;;;;;;;;;5015427;28;20455;-65
2021/12/06 13:19:20;;;;;;;18.67;11.82;;;;;;;;;;5022967;28;20038;-65
2021/12/06 13:22:07;;;;;;;22.38;14.40;;;;;;;;;;5025049;28;20500;-65
2021/12/06 13:24:36;;;;;;;21.50;12.68;;;;;;;;;;5024282;28;20046;-66
2021/12/06 13:27:12;;;;;;;23.50;13.82;;;;;;;;;;4983162;28;20054;-66
2021/12/06 13:29:45;;;;;;;19.92;13.77;;;;;;;;;;5019971;28;20460;-66
2021/12/06 13:32:28;;;;;;;22.17;13.73;;;;;;;;;;5022802;28;20058;-65
2021/12/06 13:34:56;;;;;;;24.65;14.77;;;;;;;;;;5020944;28;20577;-66
2021/12/06 13:37:26;;;;;;;21.05;14.65;;;;;;;;;;5038075;28;20557;-66
2021/12/06 13:39:52;;;;;;;22.88;14.52;;;;;;;;;;5025664;28;20053;-66
2021/12/06 13:42:40;;;;;;;23.90;13.77;;;;;;;;;;5021103;28;20046;-65
2021/12/06 13:45:18;;;;;;;26.83;14.32;;;;;;;;;;5021254;28;20041;-66
2021/12/06 13:47:48;;;;;;;22.75;14.27;;;;;;;;;;5024149;28;20111;-66
2021/12/06 13:50:16;;;;;;;28.45;16.65;;;;;;;;;;5025857;28;20365;-65
2021/12/06 13:52:51;;;;;;;24.98;14.77;;;;;;;;;;5018939;28;20095;-65
2021/12/06 13:55:25;;;;;;;23.75;14.23;;;;;;;;;;5005090;28;20121;-66
2021/12/06 13:58:00;;;;;;;25.48;15.55;;;;;;;;;;5024271;28;20050;-65
2021/12/06 14:00:31;;;;;;;24.88;15.20;;;;;;;;;;5020076;28;20045;-66
2021/12/06 14:03:00;;;;;;;21.77;14.20;;;;;;;;;;5019463;28;20045;-66
2021/12/06 14:05:29;;;;;;;23.05;14.82;;;;;;;;;;5025302;28;20050;-66
2021/12/06 14:07:56;;;;;;;26.17;15.85;;;;;;;;;;5026236;28;20107;-66
2021/12/06 14:10:24;;;;;;;26.75;15.98;;;;;;;;;;5020530;28;20559;-66
2021/12/06 14:12:51;;;;;;;23.05;14.20;;;;;;;;;;5024137;28;20481;-66
2021/12/06 14:15:25;;;;;;;23.50;14.27;;;;;;;;;;5026123;28;20053;-66
2021/12/06 14:17:54;;;;;;;22.90;14.68;;;;;;;;;;5022103;28;20057;-66
2021/12/06 14:20:21;;;;;;;22.45;13.88;;;;;;;;;;5030710;28;20468;-66
2021/12/06 14:22:48;;;;;;;21.13;13.05;;;;;;;;;;5021473;28;20105;-66
2021/12/06 14:25:17;;;;;;;21.45;13.20;;;;;;;;;;5026141;28;20057;-66
2021/12/06 14:27:45;;;;;;;23.08;14.27;;;;;;;;;;5023592;28;20065;-66
2021/12/06 14:30:17;;;;;;;21.45;13.38;;;;;;;;;;5023886;28;20053;-66
2021/12/06 14:32:54;;;;;;;22.33;13.60;;;;;;;;;;5025787;28;20045;-65
2021/12/06 14:35:25;;;;;;;21.30;13.45;;;;;;;;;;5006065;28;20187;-65
2021/12/06 14:37:53;;;;;;;21.35;12.38;;;;;;;;;;5005816;28;20515;-68
2021/12/06 14:40:21;;;;;;;23.20;14.48;;;;;;;;;;5009634;28;20049;-69
2021/12/06 14:42:48;;;;;;;21.67;13.15;;;;;;;;;;4979794;28;20559;-67
2021/12/06 14:45:17;;;;;;;22.88;13.68;;;;;;;;;;5021563;28;20181;-68
2021/12/06 14:47:54;;;;;;;20.80;13.88;;;;;;;;;;5023376;28;20045;-68
2021/12/06 14:50:58;;;;;;;23.90;14.07;;;;;;;;;;5005223;28;20050;-66
2021/12/06 14:53:20;;;;;;;27.10;15.13;;;;;;;;;;5028211;28;20103;-69
2021/12/06 14:58:39;;;;;;;27.20;15.20;;;;;;;;;;5024113;28;20128;-66
2021/12/06 15:01:09;;;;;;;28.50;15.45;;;;;;;;;;5003953;28;20477;-68